createdAt,value
2018-08-24T00:00:10.951Z,5.50
2018-08-24T00:05:14.518Z,6.65
2018-08-24T00:10:18.111Z,3.37
2018-08-24T00:15:21.644Z,6.50
2018-08-24T00:20:25.248Z,3.90
2018-08-24T00:25:28.758Z,9.70
2018-08-24T00:30:32.255Z,3.75
2018-08-24T00:35:35.693Z,4.45
2018-08-24T00:40:39.345Z,4.97
2018-08-24T00:45:42.940Z,4.55
2018-08-24T00:50:46.369Z,4.50
2018-08-24T00:55:50.074Z,6.00
2018-08-24T01:00:57.831Z,8.15
2018-08-24T01:06:01.381Z,4.40
2018-08-24T01:11:05.241Z,6.25
2018-08-24T01:16:08.854Z,5.03
2018-08-24T01:21:12.369Z,4.67
2018-08-24T01:26:20.041Z,4.95
2018-08-24T01:31:23.781Z,9.23
2018-08-24T01:36:27.282Z,5.03
2018-08-24T01:41:30.730Z,5.85
2018-08-24T01:46:34.461Z,6.15
2018-08-24T01:51:38.146Z,5.67
2018-08-24T01:56:41.679Z,6.70
2018-08-24T02:01:45.229Z,6.95
2018-08-24T02:06:48.724Z,6.15
2018-08-24T02:11:52.748Z,11.33
2018-08-24T02:16:56.459Z,7.30
2018-08-24T02:22:05.505Z,6.87
2018-08-24T02:27:09.016Z,11.80
2018-08-24T02:32:12.809Z,5.90
2018-08-24T02:37:16.257Z,5.08
2018-08-24T02:42:20.185Z,6.83
2018-08-24T02:47:23.693Z,4.85
2018-08-24T02:52:27.239Z,6.05
2018-08-24T02:57:31.131Z,5.15
2018-08-24T03:02:34.754Z,5.22
2018-08-24T03:07:38.245Z,6.50
2018-08-24T03:12:41.887Z,7.08
2018-08-24T03:17:50.728Z,5.47
2018-08-24T03:22:55.204Z,4.92
2018-08-24T03:27:58.714Z,5.67
2018-08-24T03:33:02.261Z,5.53
2018-08-24T03:38:06.062Z,6.28
2018-08-24T03:43:09.562Z,5.20
2018-08-24T03:48:13.142Z,5.78
2018-08-24T03:53:16.751Z,11.03
2018-08-24T03:58:20.259Z,8.08
2018-08-24T04:03:23.765Z,9.93
2018-08-24T04:08:27.250Z,8.00
2018-08-24T04:13:30.738Z,6.90
2018-08-24T04:18:34.335Z,9.53
2018-08-24T04:23:37.841Z,8.63
2018-08-24T04:28:41.317Z,8.88
2018-08-24T04:33:44.801Z,9.28
2018-08-24T04:38:48.348Z,11.12
2018-08-24T04:43:51.809Z,9.10
2018-08-24T04:48:55.633Z,8.80
2018-08-24T04:53:59.438Z,8.70
2018-08-24T04:59:03.165Z,6.92
2018-08-24T05:04:06.989Z,10.18
2018-08-24T05:09:11.444Z,7.80
2018-08-24T05:14:15.161Z,12.78
2018-08-24T05:19:18.649Z,10.55
2018-08-24T05:24:22.273Z,7.58
2018-08-24T05:29:25.784Z,7.67
2018-08-24T05:34:29.530Z,10.53
2018-08-24T05:39:33.242Z,8.70
2018-08-24T05:44:37.810Z,7.90
2018-08-24T05:49:41.482Z,9.70
2018-08-24T05:54:45.042Z,12.58
2018-08-24T05:59:48.567Z,9.50
2018-08-24T06:04:52.249Z,7.87
2018-08-24T06:09:55.799Z,8.37
2018-08-24T06:14:59.360Z,9.23
2018-08-24T06:20:03.010Z,9.03
2018-08-24T06:25:06.731Z,9.53
2018-08-24T06:30:10.685Z,12.18
2018-08-24T06:35:14.484Z,10.55
2018-08-24T06:40:18.207Z,10.43
2018-08-24T06:45:21.657Z,13.10
2018-08-24T06:50:25.427Z,14.20
2018-08-24T06:55:28.998Z,15.00
2018-08-24T07:00:33.401Z,18.27
2018-08-24T07:05:36.866Z,18.67
2018-08-24T07:10:40.612Z,15.05
2018-08-24T07:15:44.107Z,23.30
2018-08-24T07:20:47.758Z,13.83
2018-08-24T07:25:51.787Z,15.95
2018-08-24T07:30:55.401Z,18.77
2018-08-24T07:35:58.916Z,13.90
2018-08-24T07:41:02.506Z,14.68
2018-08-24T07:46:05.985Z,17.87
2018-08-24T07:51:09.543Z,20.05
2018-08-24T07:56:13.386Z,14.05
2018-08-24T08:01:17.090Z,13.90
2018-08-24T08:06:20.942Z,16.52
2018-08-24T08:11:24.453Z,11.75
2018-08-24T08:16:27.952Z,11.10
2018-08-24T08:21:32.197Z,10.82
2018-08-24T08:26:35.749Z,7.80
2018-08-24T08:31:39.228Z,6.50
2018-08-24T08:36:42.947Z,7.42
2018-08-24T08:41:46.451Z,7.25
2018-08-24T08:46:50.179Z,6.80
2018-08-24T08:51:53.677Z,5.58
2018-08-24T08:56:57.166Z,4.30
2018-08-24T09:02:00.813Z,3.50
2018-08-24T09:07:04.412Z,6.77
2018-08-24T09:12:08.995Z,3.10
2018-08-24T09:17:17.588Z,5.95
2018-08-24T09:22:26.553Z,4.42
2018-08-24T09:27:30.350Z,6.95
2018-08-24T09:32:34.065Z,5.85
2018-08-24T09:37:38.593Z,6.25
2018-08-24T09:42:42.263Z,5.55
2018-08-24T09:47:51.002Z,4.60
2018-08-24T09:52:59.822Z,4.90
2018-08-24T09:58:03.402Z,4.50
2018-08-24T10:03:12.398Z,4.80
2018-08-24T10:08:21.220Z,4.87
2018-08-24T10:13:24.826Z,4.58
2018-08-24T10:18:28.252Z,13.13
2018-08-24T10:23:31.774Z,5.92
2018-08-24T10:28:35.270Z,3.30
2018-08-24T10:33:38.896Z,2.70
2018-08-24T10:38:42.361Z,4.47
2018-08-24T10:43:45.831Z,3.95
2018-08-24T10:48:49.365Z,2.08
2018-08-24T10:53:52.976Z,1.60
2018-08-24T10:58:56.978Z,9.08
2018-08-24T11:04:00.771Z,3.22
2018-08-24T11:09:05.416Z,5.17
2018-08-24T11:14:09.385Z,2.72
2018-08-24T11:19:13.129Z,3.12
2018-08-24T11:24:17.212Z,2.35
2018-08-24T11:29:22.333Z,2.60
2018-08-24T11:34:26.425Z,2.08
2018-08-24T11:39:30.513Z,2.17
2018-08-24T11:44:34.660Z,1.90
2018-08-24T11:49:39.048Z,4.60
2018-08-24T11:54:43.305Z,3.75
2018-08-24T11:59:46.821Z,3.98
2018-08-24T12:04:52.004Z,1.57
2018-08-24T12:09:55.697Z,2.02
2018-08-24T12:14:59.183Z,2.92
2018-08-24T12:20:02.823Z,4.17
2018-08-24T12:25:06.698Z,1.80
2018-08-24T12:30:10.153Z,1.57
2018-08-24T12:35:13.675Z,4.10
2018-08-24T12:40:17.511Z,1.90
2018-08-24T12:45:21.205Z,3.97
2018-08-24T12:50:26.987Z,5.50
2018-08-24T12:55:31.836Z,3.37
2018-08-24T13:00:36.247Z,2.62
2018-08-24T13:05:41.102Z,4.25
2018-08-24T13:10:46.070Z,2.27
2018-08-24T13:15:49.588Z,3.72
2018-08-24T13:20:53.715Z,4.42
2018-08-24T13:25:57.316Z,3.20
2018-08-24T13:31:01.204Z,5.95
2018-08-24T13:36:04.926Z,3.75
2018-08-24T13:41:08.492Z,5.85
2018-08-24T13:46:16.221Z,9.38
2018-08-24T13:51:19.977Z,5.67
2018-08-24T13:56:23.397Z,6.05
2018-08-24T14:01:27.105Z,4.03
2018-08-24T14:06:31.237Z,5.05
2018-08-24T14:11:34.714Z,4.40
2018-08-24T14:16:38.698Z,7.80
2018-08-24T14:21:42.601Z,7.62
2018-08-24T14:26:46.174Z,5.78
2018-08-24T14:31:49.749Z,5.55
2018-08-24T14:36:53.592Z,6.97
2018-08-24T14:41:57.392Z,7.00
2018-08-24T14:47:01.277Z,6.42
2018-08-24T14:52:05.058Z,7.12
2018-08-24T14:57:08.659Z,7.87
2018-08-24T15:02:12.121Z,8.65
2018-08-24T15:07:16.168Z,7.80
2018-08-24T15:12:19.932Z,5.83
2018-08-24T15:17:23.576Z,5.97
2018-08-24T15:22:27.863Z,8.40
2018-08-24T15:27:31.339Z,8.08
2018-08-24T15:32:35.156Z,11.30
2018-08-24T15:37:38.960Z,8.63
2018-08-24T15:42:43.918Z,8.65
2018-08-24T15:47:47.422Z,12.63
2018-08-24T15:52:51.388Z,9.55
2018-08-24T15:57:55.506Z,11.83
2018-08-24T16:02:59.883Z,6.28
2018-08-24T16:08:03.543Z,9.70
2018-08-24T16:13:07.298Z,7.17
2018-08-24T16:18:16.193Z,8.15
2018-08-24T16:23:19.779Z,13.03
2018-08-24T16:28:23.227Z,6.60
2018-08-24T16:33:26.689Z,6.75
2018-08-24T16:38:30.359Z,10.18
2018-08-24T16:43:33.854Z,11.50
2018-08-24T16:48:37.283Z,10.35
2018-08-24T16:53:41.427Z,7.20
2018-08-24T16:58:45.558Z,7.12
2018-08-24T17:03:49.227Z,7.70
2018-08-24T17:08:52.696Z,7.12
2018-08-24T17:13:57.502Z,8.30
2018-08-24T17:19:01.455Z,5.85
2018-08-24T17:24:05.210Z,7.37
2018-08-24T17:29:08.888Z,6.33
2018-08-24T17:34:12.612Z,5.70
2018-08-24T17:39:16.115Z,6.78
2018-08-24T17:44:19.652Z,6.95
2018-08-24T17:49:23.387Z,6.60
2018-08-24T17:54:26.967Z,7.53
2018-08-24T17:59:30.399Z,6.22
2018-08-24T18:04:33.833Z,5.20
2018-08-24T18:09:37.368Z,4.60
2018-08-24T18:14:40.933Z,4.97
2018-08-24T18:19:44.434Z,4.03
2018-08-24T18:24:48.042Z,4.37
2018-08-24T18:29:52.737Z,5.95
2018-08-24T18:34:56.807Z,5.72
2018-08-24T18:40:00.501Z,6.87
2018-08-24T18:45:05.717Z,4.72
2018-08-24T18:50:09.519Z,6.22
2018-08-24T18:55:13.097Z,5.17
2018-08-24T19:00:16.569Z,4.87
2018-08-24T19:05:20.667Z,5.40
2018-08-24T19:10:24.268Z,7.60
2018-08-24T19:15:27.744Z,6.72
2018-08-24T19:20:36.867Z,5.50
2018-08-24T19:25:40.677Z,6.22
2018-08-24T19:30:44.214Z,7.20
2018-08-24T19:35:47.684Z,5.25
2018-08-24T19:40:56.591Z,11.00
2018-08-24T19:46:00.449Z,13.35
2018-08-24T19:51:03.973Z,10.93
2018-08-24T19:56:07.656Z,5.80
2018-08-24T20:01:11.215Z,7.58
2018-08-24T20:06:20.060Z,7.78
2018-08-24T20:11:23.428Z,7.67
2018-08-24T20:16:32.266Z,6.42
2018-08-24T20:21:35.831Z,6.22
2018-08-24T20:26:40.066Z,8.05
2018-08-24T20:31:43.601Z,5.92
2018-08-24T20:36:47.216Z,5.45
2018-08-24T20:41:50.786Z,5.15
2018-08-24T20:46:54.204Z,5.00
2018-08-24T20:51:58.357Z,5.40
2018-08-24T20:57:01.944Z,5.03
2018-08-24T21:02:05.922Z,5.42
2018-08-24T21:07:09.774Z,6.05
2018-08-24T21:12:13.237Z,5.03
2018-08-24T21:17:16.689Z,5.12
2018-08-24T21:22:20.454Z,7.22
2018-08-24T21:27:24.178Z,7.50
2018-08-24T21:32:27.685Z,5.60
2018-08-24T21:37:31.553Z,5.42
2018-08-24T21:42:35.232Z,4.08
2018-08-24T21:47:38.736Z,4.50
2018-08-24T21:52:42.507Z,6.30
2018-08-24T21:57:46.024Z,7.12
2018-08-24T22:02:49.508Z,4.47
2018-08-24T22:07:54.719Z,5.30
2018-08-24T22:12:58.492Z,5.80
2018-08-24T22:18:02.564Z,7.03
2018-08-24T22:23:06.134Z,9.63
2018-08-24T22:28:09.960Z,6.08
2018-08-24T22:33:13.671Z,4.62
2018-08-24T22:38:17.401Z,8.68
2018-08-24T22:43:26.236Z,5.33
2018-08-24T22:48:29.882Z,5.80
2018-08-24T22:53:33.680Z,5.08
2018-08-24T22:58:37.207Z,6.42
2018-08-24T23:03:40.917Z,6.55
2018-08-24T23:08:44.600Z,6.62
2018-08-24T23:13:48.228Z,5.55
2018-08-24T23:18:51.756Z,5.47
2018-08-24T23:23:55.592Z,6.45
2018-08-24T23:28:59.496Z,8.05
2018-08-24T23:34:03.465Z,6.47
2018-08-24T23:39:09.418Z,7.17
2018-08-24T23:44:13.798Z,6.85
2018-08-24T23:49:17.469Z,7.90
2018-08-24T23:54:21.087Z,7.30
2018-08-24T23:59:24.585Z,6.53
